sensor_id;sensor_type;location;lat;lon;timestamp;pressure;altitude;pressure_sealevel;temperature;humidity
15971;BME280;59785;52.582;13.892;2022-09-09T03:27:25;100315.94;;;11.95;100.00
15971;BME280;59785;52.582;13.892;2022-09-09T03:29:51;100308.03;;;11.93;100.00
15971;BME280;59785;52.582;13.892;2022-09-09T03:32:21;100312.56;;;11.93;100.00
15971;BME280;59785;52.582;13.892;2022-09-09T03:34:55;100313.75;;;11.90;100.00
15971;BME280;59785;52.582;13.892;2022-09-09T03:37:21;100326.63;;;11.87;100.00
15971;BME280;59785;52.582;13.892;2022-09-09T03:39:49;100319.59;;;11.86;100.00
15971;BME280;59785;52.582;13.892;2022-09-09T03:42:17;100324.31;;;11.83;100.00
15971;BME280;59785;52.582;13.892;2022-09-09T03:44:47;100315.44;;;11.83;100.00
15971;BME280;59785;52.582;13.892;2022-09-09T03:47:21;100315.44;;;11.83;100.00
15971;BME280;59785;52.582;13.892;2022-09-09T03:49:54;100315.59;;;11.81;100.00
15971;BME280;59785;52.582;13.892;2022-09-09T03:52:21;100321.47;;;11.77;100.00
15971;BME280;59785;52.582;13.892;2022-09-09T03:54:52;100328.03;;;11.74;100.00
15971;BME280;59785;52.582;13.892;2022-09-09T03:57:19;100323.84;;;11.72;100.00
15971;BME280;59785;52.582;13.892;2022-09-09T03:59:45;100323.50;;;11.67;100.00
15971;BME280;59785;52.582;13.892;2022-09-09T04:02:12;100322.34;;;11.61;100.00
15971;BME280;59785;52.582;13.892;2022-09-09T04:04:38;100324.72;;;11.56;100.00
15971;BME280;59785;52.582;13.892;2022-09-09T04:07:04;100321.19;;;11.55;100.00
15971;BME280;59785;52.582;13.892;2022-09-09T04:09:33;100320.34;;;11.55;100.00
15971;BME280;59785;52.582;13.892;2022-09-09T04:11:59;100326.03;;;11.52;100.00
15971;BME280;59785;52.582;13.892;2022-09-09T04:14:25;100330.56;;;11.51;100.00
15971;BME280;59785;52.582;13.892;2022-09-09T04:16:55;100327.59;;;11.46;100.00
15971;BME280;59785;52.582;13.892;2022-09-09T04:19:24;100337.47;;;11.45;100.00
15971;BME280;59785;52.582;13.892;2022-09-09T04:21:51;100335.28;;;11.41;100.00
15971;BME280;59785;52.582;13.892;2022-09-09T04:24:19;100337.31;;;11.39;100.00
15971;BME280;59785;52.582;13.892;2022-09-09T04:26:48;100331.28;;;11.37;100.00
15971;BME280;59785;52.582;13.892;2022-09-09T04:29:15;100332.78;;;11.39;100.00
15971;BME280;59785;52.582;13.892;2022-09-09T04:31:41;100339.16;;;11.38;100.00
15971;BME280;59785;52.582;13.892;2022-09-09T04:34:09;100333.13;;;11.36;100.00
15971;BME280;59785;52.582;13.892;2022-09-09T04:36:35;100342.00;;;11.37;100.00
15971;BME280;59785;52.582;13.892;2022-09-09T04:39:03;100335.28;;;11.41;100.00
15971;BME280;59785;52.582;13.892;2022-09-09T04:41:30;100340.13;;;11.45;100.00
15971;BME280;59785;52.582;13.892;2022-09-09T04:43:57;100344.16;;;11.50;100.00
15971;BME280;59785;52.582;13.892;2022-09-09T04:46:25;100337.63;;;11.52;100.00
15971;BME280;59785;52.582;13.892;2022-09-09T04:48:51;100335.25;;;11.57;100.00
15971;BME280;59785;52.582;13.892;2022-09-09T04:51:19;100345.66;;;11.60;100.00
15971;BME280;59785;52.582;13.892;2022-09-09T04:53:47;100353.19;;;11.65;100.00
15971;BME280;59785;52.582;13.892;2022-09-09T04:56:17;100358.22;;;11.68;100.00
15971;BME280;59785;52.582;13.892;2022-09-09T04:58:48;100350.00;;;11.70;100.00
15971;BME280;59785;52.582;13.892;2022-09-09T05:01:18;100356.06;;;11.72;100.00
15971;BME280;59785;52.582;13.892;2022-09-09T05:03:46;100361.25;;;11.73;100.00
15971;BME280;59785;52.582;13.892;2022-09-09T05:06:21;100362.91;;;11.74;100.00
15971;BME280;59785;52.582;13.892;2022-09-09T05:08:51;100361.72;;;11.77;100.00
15971;BME280;59785;52.582;13.892;2022-09-09T05:11:27;100375.31;;;11.83;100.00
15971;BME280;59785;52.582;13.892;2022-09-09T05:13:58;100366.75;;;11.88;100.00
15971;BME280;59785;52.582;13.892;2022-09-09T05:16:27;100365.56;;;11.91;100.00
15971;BME280;59785;52.582;13.892;2022-09-09T05:18:53;100367.78;;;11.95;100.00
15971;BME280;59785;52.582;13.892;2022-09-09T05:21:21;100368.75;;;12.02;100.00
15971;BME280;59785;52.582;13.892;2022-09-09T05:23:49;100365.03;;;12.12;100.00
15971;BME280;59785;52.582;13.892;2022-09-09T05:26:19;100379.78;;;12.16;100.00
15971;BME280;59785;52.582;13.892;2022-09-09T05:28:48;100369.53;;;12.19;100.00
15971;BME280;59785;52.582;13.892;2022-09-09T05:31:16;100375.56;;;12.30;100.00
15971;BME280;59785;52.582;13.892;2022-09-09T05:33:45;100375.34;;;12.39;100.00
15971;BME280;59785;52.582;13.892;2022-09-09T05:36:14;100373.59;;;12.47;100.00
15971;BME280;59785;52.582;13.892;2022-09-09T05:38:41;100385.19;;;12.55;100.00
15971;BME280;59785;52.582;13.892;2022-09-09T05:41:09;100382.28;;;12.65;100.00
15971;BME280;59785;52.582;13.892;2022-09-09T05:43:37;100383.41;;;12.71;100.00
15971;BME280;59785;52.582;13.892;2022-09-09T05:46:09;100387.06;;;12.78;100.00
15971;BME280;59785;52.582;13.892;2022-09-09T05:48:38;100385.16;;;12.87;100.00
15971;BME280;59785;52.582;13.892;2022-09-09T05:51:08;100378.25;;;12.92;100.00
15971;BME280;59785;52.582;13.892;2022-09-09T05:53:35;100382.53;;;13.01;100.00
15971;BME280;59785;52.582;13.892;2022-09-09T05:56:04;100383.50;;;13.09;100.00
15971;BME280;59785;52.582;13.892;2022-09-09T05:58:33;100380.75;;;13.17;100.00
15971;BME280;59785;52.582;13.892;2022-09-09T06:01:09;100382.19;;;13.28;100.00
15971;BME280;59785;52.582;13.892;2022-09-09T06:03:38;100388.09;;;13.31;100.00
15971;BME280;59785;52.582;13.892;2022-09-09T06:06:07;100379.94;;;13.39;100.00
15971;BME280;59785;52.582;13.892;2022-09-09T06:08:35;100376.81;;;13.51;100.00
15971;BME280;59785;52.582;13.892;2022-09-09T06:11:14;100379.78;;;13.56;100.00
15971;BME280;59785;52.582;13.892;2022-09-09T06:13:41;100381.03;;;13.68;100.00
15971;BME280;59785;52.582;13.892;2022-09-09T06:16:09;100377.44;;;13.76;100.00
15971;BME280;59785;52.582;13.892;2022-09-09T06:18:39;100380.03;;;13.84;100.00
15971;BME280;59785;52.582;13.892;2022-09-09T06:21:06;100379.28;;;13.90;100.00
15971;BME280;59785;52.582;13.892;2022-09-09T06:23:34;100387.28;;;13.98;100.00
15971;BME280;59785;52.582;13.892;2022-09-09T06:26:09;100392.56;;;14.07;100.00
15971;BME280;59785;52.582;13.892;2022-09-09T06:28:36;100385.16;;;14.09;100.00
15971;BME280;59785;52.582;13.892;2022-09-09T06:31:08;100395.00;;;14.16;100.00
15971;BME280;59785;52.582;13.892;2022-09-09T06:33:36;100397.78;;;14.23;100.00
15971;BME280;59785;52.582;13.892;2022-09-09T06:36:05;100394.53;;;14.28;100.00
15971;BME280;59785;52.582;13.892;2022-09-09T06:38:31;100394.16;;;14.31;100.00
15971;BME280;59785;52.582;13.892;2022-09-09T06:40:59;100394.63;;;14.34;100.00
15971;BME280;59785;52.582;13.892;2022-09-09T06:43:27;100395.81;;;14.32;100.00
15971;BME280;59785;52.582;13.892;2022-09-09T06:48:21;100390.06;;;14.35;100.00
15971;BME280;59785;52.582;13.892;2022-09-09T06:50:48;100402.97;;;14.39;100.00
15971;BME280;59785;52.582;13.892;2022-09-09T06:53:17;100399.63;;;14.37;100.00
15971;BME280;59785;52.582;13.892;2022-09-09T06:55:45;100394.25;;;14.37;100.00
15971;BME280;59785;52.582;13.892;2022-09-09T06:58:12;100398.22;;;14.42;100.00
15971;BME280;59785;52.582;13.892;2022-09-09T07:00:38;100399.75;;;14.44;100.00
15971;BME280;59785;52.582;13.892;2022-09-09T07:03:05;100388.38;;;14.49;100.00
15971;BME280;59785;52.582;13.892;2022-09-09T07:05:32;100393.59;;;14.50;100.00
15971;BME280;59785;52.582;13.892;2022-09-09T07:07:58;100387.47;;;14.56;100.00
15971;BME280;59785;52.582;13.892;2022-09-09T07:10:25;100393.78;;;14.64;100.00
15971;BME280;59785;52.582;13.892;2022-09-09T07:12:51;100391.81;;;14.72;100.00
15971;BME280;59785;52.582;13.892;2022-09-09T07:15:21;100397.09;;;14.81;100.00
15971;BME280;59785;52.582;13.892;2022-09-09T07:17:48;100391.97;;;14.86;100.00
15971;BME280;59785;52.582;13.892;2022-09-09T07:20:15;100387.84;;;14.90;100.00
15971;BME280;59785;52.582;13.892;2022-09-09T07:22:41;100392.25;;;14.91;100.00
15971;BME280;59785;52.582;13.892;2022-09-09T07:25:08;100392.13;;;14.99;100.00
15971;BME280;59785;52.582;13.892;2022-09-09T07:27:35;100388.00;;;15.03;100.00
15971;BME280;59785;52.582;13.892;2022-09-09T07:30:03;100401.38;;;15.11;100.00
15971;BME280;59785;52.582;13.892;2022-09-09T07:32:31;100388.16;;;15.16;100.00
15971;BME280;59785;52.582;13.892;2022-09-09T07:34:57;100401.22;;;15.19;100.00
15971;BME280;59785;52.582;13.892;2022-09-09T07:37:26;100395.28;;;15.24;100.00
15971;BME280;59785;52.582;13.892;2022-09-09T07:39:52;100395.72;;;15.28;100.00
15971;BME280;59785;52.582;13.892;2022-09-09T07:42:19;100392.91;;;15.36;100.00
15971;BME280;59785;52.582;13.892;2022-09-09T07:44:45;100401.91;;;15.43;100.00
15971;BME280;59785;52.582;13.892;2022-09-09T07:47:14;100405.69;;;15.49;100.00
15971;BME280;59785;52.582;13.892;2022-09-09T07:49:43;100403.47;;;15.59;100.00
15971;BME280;59785;52.582;13.892;2022-09-09T07:52:14;100403.53;;;15.66;100.00
15971;BME280;59785;52.582;13.892;2022-09-09T07:54:47;100416.72;;;15.75;100.00
15971;BME280;59785;52.582;13.892;2022-09-09T07:57:13;100422.31;;;15.74;100.00
15971;BME280;59785;52.582;13.892;2022-09-09T07:59:41;100419.94;;;15.86;100.00
15971;BME280;59785;52.582;13.892;2022-09-09T08:02:08;100413.53;;;15.93;100.00
15971;BME280;59785;52.582;13.892;2022-09-09T08:04:35;100410.69;;;16.02;100.00
15971;BME280;59785;52.582;13.892;2022-09-09T08:07:02;100413.44;;;16.08;100.00
15971;BME280;59785;52.582;13.892;2022-09-09T08:09:34;100414.94;;;16.17;100.00
15971;BME280;59785;52.582;13.892;2022-09-09T08:12:06;100409.75;;;16.23;100.00
15971;BME280;59785;52.582;13.892;2022-09-09T08:14:33;100415.84;;;16.25;100.00
15971;BME280;59785;52.582;13.892;2022-09-09T08:17:00;100421.72;;;16.35;100.00
15971;BME280;59785;52.582;13.892;2022-09-09T08:19:27;100423.59;;;16.41;100.00
15971;BME280;59785;52.582;13.892;2022-09-09T08:21:57;100420.91;;;16.41;100.00
15971;BME280;59785;52.582;13.892;2022-09-09T08:24:23;100419.28;;;16.47;100.00
15971;BME280;59785;52.582;13.892;2022-09-09T08:26:50;100416.81;;;16.52;100.00
15971;BME280;59785;52.582;13.892;2022-09-09T08:29:20;100427.47;;;16.60;100.00
15971;BME280;59785;52.582;13.892;2022-09-09T08:31:49;100420.38;;;16.59;100.00
15971;BME280;59785;52.582;13.892;2022-09-09T08:34:15;100432.00;;;16.60;100.00
15971;BME280;59785;52.582;13.892;2022-09-09T08:36:44;100426.59;;;16.60;100.00
15971;BME280;59785;52.582;13.892;2022-09-09T08:39:14;100428.53;;;16.66;100.00
15971;BME280;59785;52.582;13.892;2022-09-09T08:42:00;100431.88;;;16.74;100.00
15971;BME280;59785;52.582;13.892;2022-09-09T08:45:01;100433.84;;;16.87;100.00
15971;BME280;59785;52.582;13.892;2022-09-09T08:47:39;100431.81;;;17.09;100.00
15971;BME280;59785;52.582;13.892;2022-09-09T08:50:13;100432.28;;;17.26;100.00
15971;BME280;59785;52.582;13.892;2022-09-09T08:52:52;100429.78;;;17.31;100.00
15971;BME280;59785;52.582;13.892;2022-09-09T08:55:39;100432.50;;;17.38;99.02
15971;BME280;59785;52.582;13.892;2022-09-09T08:58:14;100435.63;;;17.48;95.40
15971;BME280;59785;52.582;13.892;2022-09-09T09:00:51;100436.91;;;17.66;93.14
15971;BME280;59785;52.582;13.892;2022-09-09T09:03:31;100435.66;;;17.75;93.00
15971;BME280;59785;52.582;13.892;2022-09-09T09:06:13;100437.78;;;17.93;93.37
15971;BME280;59785;52.582;13.892;2022-09-09T09:08:54;100442.34;;;18.12;92.92
15971;BME280;59785;52.582;13.892;2022-09-09T09:11:23;100427.69;;;18.33;91.65
15971;BME280;59785;52.582;13.892;2022-09-09T09:14:17;100431.78;;;18.63;91.40
15971;BME280;59785;52.582;13.892;2022-09-09T09:16:58;100430.38;;;19.05;91.07
15971;BME280;59785;52.582;13.892;2022-09-09T09:19:27;100435.03;;;19.55;83.62
15971;BME280;59785;52.582;13.892;2022-09-09T09:22:17;100430.97;;;19.96;79.92
15971;BME280;59785;52.582;13.892;2022-09-09T09:24:54;100428.47;;;20.57;79.42
15971;BME280;59785;52.582;13.892;2022-09-09T09:27:40;100419.19;;;21.13;73.84
15971;BME280;59785;52.582;13.892;2022-09-09T09:30:16;100420.88;;;21.56;71.57
15971;BME280;59785;52.582;13.892;2022-09-09T09:33:08;100419.72;;;21.88;68.98
15971;BME280;59785;52.582;13.892;2022-09-09T09:35:40;100419.47;;;22.13;67.75
15971;BME280;59785;52.582;13.892;2022-09-09T09:38:23;100414.97;;;22.42;64.41
15971;BME280;59785;52.582;13.892;2022-09-09T09:41:10;100411.25;;;22.60;62.48
15971;BME280;59785;52.582;13.892;2022-09-09T09:43:40;100413.69;;;22.73;61.66
15971;BME280;59785;52.582;13.892;2022-09-09T09:46:21;100412.38;;;22.76;61.33
15971;BME280;59785;52.582;13.892;2022-09-09T09:49:09;100415.47;;;22.79;60.99
15971;BME280;59785;52.582;13.892;2022-09-09T09:51:37;100407.78;;;22.64;61.28
15971;BME280;59785;52.582;13.892;2022-09-09T09:56:37;100411.09;;;22.26;60.47
15971;BME280;59785;52.582;13.892;2022-09-09T09:59:04;100419.34;;;22.08;62.94
15971;BME280;59785;52.582;13.892;2022-09-09T10:01:48;100420.31;;;22.01;63.54
15971;BME280;59785;52.582;13.892;2022-09-09T10:04:20;100424.00;;;21.95;62.74
15971;BME280;59785;52.582;13.892;2022-09-09T10:06:52;100420.53;;;22.00;62.77
15971;BME280;59785;52.582;13.892;2022-09-09T10:09:30;100420.31;;;22.13;63.93
15971;BME280;59785;52.582;13.892;2022-09-09T10:12:03;100421.03;;;22.32;63.85
15971;BME280;59785;52.582;13.892;2022-09-09T10:14:44;100421.25;;;22.42;62.39
15971;BME280;59785;52.582;13.892;2022-09-09T10:17:27;100408.38;;;22.67;60.04
15971;BME280;59785;52.582;13.892;2022-09-09T10:20:16;100408.94;;;22.80;59.64
15971;BME280;59785;52.582;13.892;2022-09-09T10:22:51;100405.06;;;22.93;56.44
15971;BME280;59785;52.582;13.892;2022-09-09T10:25:38;100413.50;;;22.92;57.99
15971;BME280;59785;52.582;13.892;2022-09-09T10:28:50;100414.00;;;22.89;57.88
15971;BME280;59785;52.582;13.892;2022-09-09T10:31:46;100415.03;;;22.71;57.91
15971;BME280;59785;52.582;13.892;2022-09-09T10:36:49;100419.25;;;22.38;60.53
15971;BME280;59785;52.582;13.892;2022-09-09T10:39:28;100418.31;;;22.09;59.65
15971;BME280;59785;52.582;13.892;2022-09-09T10:42:06;100420.31;;;21.90;61.45
15971;BME280;59785;52.582;13.892;2022-09-09T10:45:07;100419.81;;;21.81;61.53
15971;BME280;59785;52.582;13.892;2022-09-09T10:47:54;100427.03;;;21.63;61.24
15971;BME280;59785;52.582;13.892;2022-09-09T10:50:40;100423.91;;;21.48;61.54
15971;BME280;59785;52.582;13.892;2022-09-09T10:53:56;100425.16;;;21.64;63.23
15971;BME280;59785;52.582;13.892;2022-09-09T10:56:24;100414.13;;;21.82;62.28
15971;BME280;59785;52.582;13.892;2022-09-09T10:59:34;100419.72;;;21.99;62.19
15971;BME280;59785;52.582;13.892;2022-09-09T11:02:00;100435.38;;;22.16;60.50
15971;BME280;59785;52.582;13.892;2022-09-09T11:04:35;100421.88;;;22.33;59.31
15971;BME280;59785;52.582;13.892;2022-09-09T11:07:13;100427.91;;;22.23;61.63
15971;BME280;59785;52.582;13.892;2022-09-09T11:09:47;100435.94;;;22.18;63.13
15971;BME280;59785;52.582;13.892;2022-09-09T11:12:17;100426.00;;;22.12;62.10
15971;BME280;59785;52.582;13.892;2022-09-09T11:14:52;100431.34;;;22.07;62.99
15971;BME280;59785;52.582;13.892;2022-09-09T11:17:25;100430.78;;;22.28;62.48
15971;BME280;59785;52.582;13.892;2022-09-09T11:19:53;100435.47;;;22.56;61.47
15971;BME280;59785;52.582;13.892;2022-09-09T11:22:23;100430.31;;;22.72;59.84
15971;BME280;59785;52.582;13.892;2022-09-09T11:24:56;100431.38;;;22.82;59.35
15971;BME280;59785;52.582;13.892;2022-09-09T11:30:21;100417.72;;;23.11;58.18
15971;BME280;59785;52.582;13.892;2022-09-09T11:33:30;100421.31;;;23.29;57.62
15971;BME280;59785;52.582;13.892;2022-09-09T11:36:33;100414.38;;;23.38;56.05
15971;BME280;59785;52.582;13.892;2022-09-09T11:41:40;100413.41;;;23.44;56.22
15971;BME280;59785;52.582;13.892;2022-09-09T11:44:18;100410.59;;;23.39;56.31
15971;BME280;59785;52.582;13.892;2022-09-09T11:46:49;100418.03;;;23.43;57.38
15971;BME280;59785;52.582;13.892;2022-09-09T11:49:39;100417.81;;;23.45;55.10
15971;BME280;59785;52.582;13.892;2022-09-09T11:52:19;100419.28;;;23.36;54.75
15971;BME280;59785;52.582;13.892;2022-09-09T11:54:48;100406.88;;;23.45;54.25
15971;BME280;59785;52.582;13.892;2022-09-09T11:57:31;100398.59;;;23.57;53.42
15971;BME280;59785;52.582;13.892;2022-09-09T11:59:58;100407.19;;;23.66;53.70
15971;BME280;59785;52.582;13.892;2022-09-09T12:02:27;100399.41;;;23.57;53.93
15971;BME280;59785;52.582;13.892;2022-09-09T12:07:41;100396.91;;;23.39;53.07
15971;BME280;59785;52.582;13.892;2022-09-09T12:12:46;100391.34;;;23.34;53.19
15971;BME280;59785;52.582;13.892;2022-09-09T12:17:57;100390.94;;;23.42;54.39
15971;BME280;59785;52.582;13.892;2022-09-09T12:31:30;100382.50;;;23.94;54.77
15971;BME280;59785;52.582;13.892;2022-09-09T12:34:12;100376.69;;;24.30;54.03
15971;BME280;59785;52.582;13.892;2022-09-09T12:36:39;100381.69;;;24.55;53.02
15971;BME280;59785;52.582;13.892;2022-09-09T12:39:22;100376.78;;;24.79;51.96
15971;BME280;59785;52.582;13.892;2022-09-09T12:41:53;100373.16;;;24.73;51.06
15971;BME280;59785;52.582;13.892;2022-09-09T12:44:24;100378.38;;;24.53;50.65
15971;BME280;59785;52.582;13.892;2022-09-09T12:46:52;100380.97;;;24.65;50.42
15971;BME280;59785;52.582;13.892;2022-09-09T12:49:29;100363.41;;;24.60;49.95
15971;BME280;59785;52.582;13.892;2022-09-09T12:52:23;100378.47;;;24.63;50.45
15971;BME280;59785;52.582;13.892;2022-09-09T12:54:50;100372.81;;;24.70;50.09
15971;BME280;59785;52.582;13.892;2022-09-09T12:57:17;100359.91;;;24.92;50.04
15971;BME280;59785;52.582;13.892;2022-09-09T12:59:44;100353.28;;;25.15;48.27
15971;BME280;59785;52.582;13.892;2022-09-09T13:02:22;100365.50;;;25.30;48.90
15971;BME280;59785;52.582;13.892;2022-09-09T13:04:49;100356.63;;;25.50;47.17
15971;BME280;59785;52.582;13.892;2022-09-09T13:07:17;100356.59;;;25.87;47.72
15971;BME280;59785;52.582;13.892;2022-09-09T13:09:45;100360.06;;;26.10;46.66
15971;BME280;59785;52.582;13.892;2022-09-09T13:12:23;100352.69;;;26.21;45.46
15971;BME280;59785;52.582;13.892;2022-09-09T13:14:53;100359.00;;;26.16;44.75
15971;BME280;59785;52.582;13.892;2022-09-09T13:17:24;100356.72;;;26.03;44.37
15971;BME280;59785;52.582;13.892;2022-09-09T13:19:52;100364.34;;;25.58;45.51
15971;BME280;59785;52.582;13.892;2022-09-09T13:22:22;100358.34;;;25.61;46.56
15971;BME280;59785;52.582;13.892;2022-09-09T13:24:59;100363.38;;;25.74;47.43
15971;BME280;59785;52.582;13.892;2022-09-09T13:27:30;100355.66;;;25.71;47.07
15971;BME280;59785;52.582;13.892;2022-09-09T13:29:56;100348.50;;;25.70;46.33
15971;BME280;59785;52.582;13.892;2022-09-09T13:32:24;100353.75;;;25.72;47.19
15971;BME280;59785;52.582;13.892;2022-09-09T13:34:58;100341.38;;;25.69;47.33
15971;BME280;59785;52.582;13.892;2022-09-09T13:37:37;100344.19;;;25.74;47.19
15971;BME280;59785;52.582;13.892;2022-09-09T13:40:04;100340.78;;;25.62;45.97
15971;BME280;59785;52.582;13.892;2022-09-09T13:42:35;100340.00;;;25.67;46.62
15971;BME280;59785;52.582;13.892;2022-09-09T13:45:04;100333.53;;;25.46;46.90
15971;BME280;59785;52.582;13.892;2022-09-09T13:47:33;100343.13;;;25.43;47.48
15971;BME280;59785;52.582;13.892;2022-09-09T13:50:18;100334.03;;;25.37;47.36
15971;BME280;59785;52.582;13.892;2022-09-09T13:52:45;100336.47;;;25.34;46.90
15971;BME280;59785;52.582;13.892;2022-09-09T13:55:11;100336.47;;;25.34;46.28
15971;BME280;59785;52.582;13.892;2022-09-09T13:57:38;100328.25;;;25.34;46.05
15971;BME280;59785;52.582;13.892;2022-09-09T14:00:05;100332.59;;;25.30;46.24
15971;BME280;59785;52.582;13.892;2022-09-09T14:02:33;100336.66;;;25.22;45.64
15971;BME280;59785;52.582;13.892;2022-09-09T14:04:59;100343.16;;;25.16;46.12
15971;BME280;59785;52.582;13.892;2022-09-09T14:07:26;100348.84;;;25.09;47.13
15971;BME280;59785;52.582;13.892;2022-09-09T14:09:52;100335.66;;;25.06;46.96
15971;BME280;59785;52.582;13.892;2022-09-09T14:12:19;100337.53;;;25.01;46.53
15971;BME280;59785;52.582;13.892;2022-09-09T14:14:46;100344.06;;;24.99;48.05
15971;BME280;59785;52.582;13.892;2022-09-09T14:17:12;100344.81;;;24.90;48.45
15971;BME280;59785;52.582;13.892;2022-09-09T14:19:38;100352.63;;;24.76;49.33
15971;BME280;59785;52.582;13.892;2022-09-09T14:22:04;100343.97;;;24.62;49.11
15971;BME280;59785;52.582;13.892;2022-09-09T14:24:30;100349.34;;;24.52;49.27
15971;BME280;59785;52.582;13.892;2022-09-09T14:26:56;100342.06;;;24.40;50.33
15971;BME280;59785;52.582;13.892;2022-09-09T14:29:22;100338.34;;;24.30;50.60
15971;BME280;59785;52.582;13.892;2022-09-09T14:31:51;100335.16;;;24.16;50.71
15971;BME280;59785;52.582;13.892;2022-09-09T14:34:17;100337.78;;;24.06;51.16
15971;BME280;59785;52.582;13.892;2022-09-09T14:36:44;100334.91;;;23.95;51.85
15971;BME280;59785;52.582;13.892;2022-09-09T14:39:11;100341.38;;;23.89;52.07
15971;BME280;59785;52.582;13.892;2022-09-09T14:41:37;100333.09;;;23.84;52.38
15971;BME280;59785;52.582;13.892;2022-09-09T14:44:03;100329.28;;;23.85;52.78
15971;BME280;59785;52.582;13.892;2022-09-09T14:46:29;100326.81;;;23.84;53.46
15971;BME280;59785;52.582;13.892;2022-09-09T14:48:56;100327.28;;;23.97;52.82
15971;BME280;59785;52.582;13.892;2022-09-09T14:51:24;100330.50;;;24.16;52.84
15971;BME280;59785;52.582;13.892;2022-09-09T14:53:54;100331.09;;;24.40;52.54
15971;BME280;59785;52.582;13.892;2022-09-09T14:56:23;100333.91;;;24.68;51.90
15971;BME280;59785;52.582;13.892;2022-09-09T14:58:50;100334.97;;;24.94;51.33
15971;BME280;59785;52.582;13.892;2022-09-09T15:01:18;100338.13;;;25.08;50.15
15971;BME280;59785;52.582;13.892;2022-09-09T15:03:55;100335.19;;;25.14;49.89
15971;BME280;59785;52.582;13.892;2022-09-09T15:06:22;100326.16;;;25.19;49.58
15971;BME280;59785;52.582;13.892;2022-09-09T15:08:51;100328.66;;;25.21;49.88
15971;BME280;59785;52.582;13.892;2022-09-09T15:11:19;100339.31;;;25.17;50.01
15971;BME280;59785;52.582;13.892;2022-09-09T15:13:46;100342.78;;;25.07;50.18
15971;BME280;59785;52.582;13.892;2022-09-09T15:16:15;100347.47;;;24.85;49.27
15971;BME280;59785;52.582;13.892;2022-09-09T15:18:42;100357.41;;;24.64;47.26
15971;BME280;59785;52.582;13.892;2022-09-09T15:21:13;100348.00;;;24.54;47.68
15971;BME280;59785;52.582;13.892;2022-09-09T15:23:39;100351.09;;;24.41;47.59
15971;BME280;59785;52.582;13.892;2022-09-09T15:26:06;100354.66;;;24.41;48.65
15971;BME280;59785;52.582;13.892;2022-09-09T15:28:38;100359.75;;;24.33;47.68
15971;BME280;59785;52.582;13.892;2022-09-09T15:31:16;100356.13;;;24.27;45.70
15971;BME280;59785;52.582;13.892;2022-09-09T15:33:50;100339.16;;;24.08;45.55
15971;BME280;59785;52.582;13.892;2022-09-09T15:36:24;100330.38;;;24.06;46.52
15971;BME280;59785;52.582;13.892;2022-09-09T15:38:51;100327.75;;;23.94;45.71
15971;BME280;59785;52.582;13.892;2022-09-09T15:41:18;100322.72;;;23.86;44.33
15971;BME280;59785;52.582;13.892;2022-09-09T15:43:56;100316.13;;;23.82;44.10
15971;BME280;59785;52.582;13.892;2022-09-09T15:46:36;100311.53;;;23.71;43.83
15971;BME280;59785;52.582;13.892;2022-09-09T15:49:06;100321.00;;;23.63;44.18
15971;BME280;59785;52.582;13.892;2022-09-09T15:51:36;100328.97;;;23.48;44.81
15971;BME280;59785;52.582;13.892;2022-09-09T15:54:10;100320.66;;;23.42;44.02
15971;BME280;59785;52.582;13.892;2022-09-09T15:56:38;100312.75;;;23.41;44.64
15971;BME280;59785;52.582;13.892;2022-09-09T15:59:04;100312.47;;;23.42;43.96
15971;BME280;59785;52.582;13.892;2022-09-09T16:01:30;100326.91;;;23.55;44.78
15971;BME280;59785;52.582;13.892;2022-09-09T16:03:58;100336.09;;;23.83;43.88
15971;BME280;59785;52.582;13.892;2022-09-09T16:06:27;100330.00;;;24.19;43.54
15971;BME280;59785;52.582;13.892;2022-09-09T16:08:55;100346.72;;;24.62;42.92
15971;BME280;59785;52.582;13.892;2022-09-09T16:11:27;100331.97;;;24.95;43.59
15971;BME280;59785;52.582;13.892;2022-09-09T16:13:54;100342.84;;;25.12;44.15
15971;BME280;59785;52.582;13.892;2022-09-09T16:16:23;100342.44;;;25.26;45.28
15971;BME280;59785;52.582;13.892;2022-09-09T16:18:52;100339.28;;;25.44;45.03
15971;BME280;59785;52.582;13.892;2022-09-09T16:21:27;100335.78;;;25.54;45.53
15971;BME280;59785;52.582;13.892;2022-09-09T16:23:56;100347.75;;;25.37;47.85
15971;BME280;59785;52.582;13.892;2022-09-09T16:26:25;100363.16;;;25.16;49.71
15971;BME280;59785;52.582;13.892;2022-09-09T16:28:53;100366.09;;;24.83;51.63
15971;BME280;59785;52.582;13.892;2022-09-09T16:31:26;100368.66;;;24.45;53.12
15971;BME280;59785;52.582;13.892;2022-09-09T16:33:53;100374.88;;;23.79;58.04
15971;BME280;59785;52.582;13.892;2022-09-09T16:36:27;100385.88;;;23.34;61.79
15971;BME280;59785;52.582;13.892;2022-09-09T16:38:58;100381.22;;;22.89;64.63
15971;BME280;59785;52.582;13.892;2022-09-09T16:41:27;100376.13;;;22.52;66.11
15971;BME280;59785;52.582;13.892;2022-09-09T16:43:58;100380.34;;;22.07;69.12
15971;BME280;59785;52.582;13.892;2022-09-09T16:46:26;100373.13;;;21.77;70.34
15971;BME280;59785;52.582;13.892;2022-09-09T16:48:56;100369.06;;;21.56;71.12
15971;BME280;59785;52.582;13.892;2022-09-09T16:51:27;100385.34;;;21.21;72.99
15971;BME280;59785;52.582;13.892;2022-09-09T16:53:55;100374.41;;;20.79;74.21
15971;BME280;59785;52.582;13.892;2022-09-09T16:56:25;100372.59;;;20.54;75.65